sensor_id;sensor_type;location;lat;lon;timestamp;pressure;altitude;pressure_sealevel;temperature;humidity
19783;BME280;10051;40.294;-3.754;2023-07-29T00:01:50;93932.38;;;28.15;23.86
19783;BME280;10051;40.294;-3.754;2023-07-29T00:04:16;93997.41;;;28.46;23.95
19783;BME280;10051;40.294;-3.754;2023-07-29T00:06:42;94002.41;;;28.51;24.00
19783;BME280;10051;40.294;-3.754;2023-07-29T00:09:08;93982.38;;;28.41;23.77
19783;BME280;10051;40.294;-3.754;2023-07-29T00:11:33;94008.13;;;28.60;24.09
19783;BME280;10051;40.294;-3.754;2023-07-29T00:14:01;93999.66;;;28.55;24.15
19783;BME280;10051;40.294;-3.754;2023-07-29T00:16:26;94013.16;;;28.58;24.22
19783;BME280;10051;40.294;-3.754;2023-07-29T00:18:52;93987.06;;;28.37;24.25
19783;BME280;10051;40.294;-3.754;2023-07-29T00:21:17;94009.00;;;28.46;23.99
19783;BME280;10051;40.294;-3.754;2023-07-29T00:23:43;93993.25;;;28.34;23.96
19783;BME280;10051;40.294;-3.754;2023-07-29T00:26:09;93948.28;;;28.02;24.59
19783;BME280;10051;40.294;-3.754;2023-07-29T00:28:34;93990.19;;;28.32;24.44
19783;BME280;10051;40.294;-3.754;2023-07-29T00:31:01;93979.47;;;28.10;24.37
19783;BME280;10051;40.294;-3.754;2023-07-29T00:33:27;93964.78;;;28.18;24.17
19783;BME280;10051;40.294;-3.754;2023-07-29T00:35:53;94010.53;;;28.47;24.22
19783;BME280;10051;40.294;-3.754;2023-07-29T00:38:18;93983.28;;;28.24;24.06
19783;BME280;10051;40.294;-3.754;2023-07-29T00:40:44;93913.31;;;27.77;24.00
19783;BME280;10051;40.294;-3.754;2023-07-29T00:43:10;93977.91;;;28.16;23.99
19783;BME280;10051;40.294;-3.754;2023-07-29T00:45:36;93974.03;;;28.21;24.04
19783;BME280;10051;40.294;-3.754;2023-07-29T00:48:02;94007.84;;;28.44;24.08
19783;BME280;10051;40.294;-3.754;2023-07-29T00:50:29;94002.53;;;28.33;24.36
19783;BME280;10051;40.294;-3.754;2023-07-29T00:52:56;93997.94;;;28.23;24.37
19783;BME280;10051;40.294;-3.754;2023-07-29T00:55:22;93978.31;;;28.11;24.43
19783;BME280;10051;40.294;-3.754;2023-07-29T00:57:48;93957.19;;;27.99;24.56
19783;BME280;10051;40.294;-3.754;2023-07-29T01:00:17;93985.66;;;28.07;24.54
19783;BME280;10051;40.294;-3.754;2023-07-29T01:02:43;93989.50;;;28.17;24.79
19783;BME280;10051;40.294;-3.754;2023-07-29T01:05:13;93901.50;;;27.49;25.09
19783;BME280;10051;40.294;-3.754;2023-07-29T01:10:22;93971.09;;;27.94;25.08
19783;BME280;10051;40.294;-3.754;2023-07-29T01:12:58;93995.28;;;28.15;24.97
19783;BME280;10051;40.294;-3.754;2023-07-29T01:15:33;94002.63;;;28.18;25.13
19783;BME280;10051;40.294;-3.754;2023-07-29T01:18:07;94003.03;;;28.10;25.36
19783;BME280;10051;40.294;-3.754;2023-07-29T01:20:37;93959.22;;;27.73;25.66
19783;BME280;10051;40.294;-3.754;2023-07-29T01:23:04;93991.13;;;28.00;25.57
19783;BME280;10051;40.294;-3.754;2023-07-29T01:25:29;93985.72;;;28.00;25.59
19783;BME280;10051;40.294;-3.754;2023-07-29T01:27:55;93945.38;;;27.64;25.98
19783;BME280;10051;40.294;-3.754;2023-07-29T01:30:26;93959.59;;;27.79;26.01
19783;BME280;10051;40.294;-3.754;2023-07-29T01:33:09;94003.44;;;28.04;25.84
19783;BME280;10051;40.294;-3.754;2023-07-29T01:35:42;94002.66;;;28.04;26.32
19783;BME280;10051;40.294;-3.754;2023-07-29T01:38:16;93977.72;;;27.82;26.31
19783;BME280;10051;40.294;-3.754;2023-07-29T01:40:43;93969.63;;;27.78;25.98
19783;BME280;10051;40.294;-3.754;2023-07-29T01:43:10;93999.66;;;27.95;25.94
19783;BME280;10051;40.294;-3.754;2023-07-29T01:45:36;93924.66;;;27.39;26.11
19783;BME280;10051;40.294;-3.754;2023-07-29T01:48:05;93908.88;;;27.34;26.33
19783;BME280;10051;40.294;-3.754;2023-07-29T01:50:31;94001.22;;;27.88;26.26
19783;BME280;10051;40.294;-3.754;2023-07-29T01:52:59;93998.13;;;27.90;26.20
19783;BME280;10051;40.294;-3.754;2023-07-29T01:55:25;93998.91;;;27.90;26.32
19783;BME280;10051;40.294;-3.754;2023-07-29T01:57:51;94004.69;;;27.89;26.24
19783;BME280;10051;40.294;-3.754;2023-07-29T02:00:21;93982.03;;;27.65;26.79
19783;BME280;10051;40.294;-3.754;2023-07-29T02:02:47;93961.25;;;27.51;26.63
19783;BME280;10051;40.294;-3.754;2023-07-29T02:05:12;93981.31;;;27.53;26.81
19783;BME280;10051;40.294;-3.754;2023-07-29T02:07:38;94001.69;;;27.72;27.06
19783;BME280;10051;40.294;-3.754;2023-07-29T02:10:04;93977.84;;;27.56;27.31
19783;BME280;10051;40.294;-3.754;2023-07-29T02:12:29;93968.97;;;27.41;27.31
19783;BME280;10051;40.294;-3.754;2023-07-29T02:14:55;93962.06;;;27.37;27.41
19783;BME280;10051;40.294;-3.754;2023-07-29T02:17:21;93964.38;;;27.35;27.42
19783;BME280;10051;40.294;-3.754;2023-07-29T02:19:46;93993.66;;;27.51;27.84
19783;BME280;10051;40.294;-3.754;2023-07-29T02:22:17;93998.28;;;27.46;27.58
19783;BME280;10051;40.294;-3.754;2023-07-29T02:24:43;93922.13;;;26.92;28.28
19783;BME280;10051;40.294;-3.754;2023-07-29T02:27:09;93905.19;;;26.73;28.22
19783;BME280;10051;40.294;-3.754;2023-07-29T02:29:34;93998.31;;;27.36;28.15
19783;BME280;10051;40.294;-3.754;2023-07-29T02:32:00;93976.38;;;27.26;28.20
19783;BME280;10051;40.294;-3.754;2023-07-29T02:34:26;93976.75;;;27.32;28.63
19783;BME280;10051;40.294;-3.754;2023-07-29T02:36:51;93944.78;;;27.16;28.33
19783;BME280;10051;40.294;-3.754;2023-07-29T02:39:17;93989.03;;;27.48;28.36
19783;BME280;10051;40.294;-3.754;2023-07-29T02:41:43;93977.47;;;27.40;28.65
19783;BME280;10051;40.294;-3.754;2023-07-29T02:44:08;93960.19;;;27.19;28.83
19783;BME280;10051;40.294;-3.754;2023-07-29T02:46:33;93998.28;;;27.39;28.83
19783;BME280;10051;40.294;-3.754;2023-07-29T02:48:59;93991.34;;;27.42;28.75
19783;BME280;10051;40.294;-3.754;2023-07-29T02:51:25;93971.75;;;27.27;28.76
19783;BME280;10051;40.294;-3.754;2023-07-29T02:53:50;93970.97;;;27.19;28.84
19783;BME280;10051;40.294;-3.754;2023-07-29T02:56:16;93970.66;;;27.10;28.68
19783;BME280;10051;40.294;-3.754;2023-07-29T02:58:41;93981.38;;;27.28;28.71
19783;BME280;10051;40.294;-3.754;2023-07-29T03:01:07;93943.28;;;27.08;28.77
19783;BME280;10051;40.294;-3.754;2023-07-29T03:03:33;93985.22;;;27.30;28.96
19783;BME280;10051;40.294;-3.754;2023-07-29T03:06:04;93954.84;;;27.05;29.09
19783;BME280;10051;40.294;-3.754;2023-07-29T03:08:30;93976.03;;;27.06;28.95
19783;BME280;10051;40.294;-3.754;2023-07-29T03:10:57;93986.81;;;27.13;29.02
19783;BME280;10051;40.294;-3.754;2023-07-29T03:13:22;93978.38;;;27.00;29.09
19783;BME280;10051;40.294;-3.754;2023-07-29T03:15:48;93946.38;;;26.81;29.31
19783;BME280;10051;40.294;-3.754;2023-07-29T03:18:14;93951.03;;;26.80;29.39
19783;BME280;10051;40.294;-3.754;2023-07-29T03:20:40;93900.63;;;26.48;29.41
19783;BME280;10051;40.294;-3.754;2023-07-29T03:23:06;94000.72;;;27.05;29.44
19783;BME280;10051;40.294;-3.754;2023-07-29T03:25:31;93996.88;;;26.88;29.67
19783;BME280;10051;40.294;-3.754;2023-07-29T03:27:57;93990.72;;;26.76;30.13
19783;BME280;10051;40.294;-3.754;2023-07-29T03:30:23;93971.44;;;26.52;30.38
19783;BME280;10051;40.294;-3.754;2023-07-29T03:32:49;94003.81;;;26.67;30.70
19783;BME280;10051;40.294;-3.754;2023-07-29T03:35:15;93949.50;;;26.39;30.87
19783;BME280;10051;40.294;-3.754;2023-07-29T03:37:41;93985.31;;;26.65;30.95
19783;BME280;10051;40.294;-3.754;2023-07-29T03:40:09;93998.44;;;26.89;31.03
19783;BME280;10051;40.294;-3.754;2023-07-29T03:42:35;93989.91;;;26.76;31.06
19783;BME280;10051;40.294;-3.754;2023-07-29T03:45:01;93991.47;;;26.84;31.36
19783;BME280;10051;40.294;-3.754;2023-07-29T03:47:27;94003.44;;;26.90;31.68
19783;BME280;10051;40.294;-3.754;2023-07-29T03:49:53;93986.06;;;26.77;31.59
19783;BME280;10051;40.294;-3.754;2023-07-29T03:52:18;93986.88;;;26.66;31.95
19783;BME280;10051;40.294;-3.754;2023-07-29T03:54:44;93952.97;;;26.40;32.43
19783;BME280;10051;40.294;-3.754;2023-07-29T03:57:09;94013.81;;;26.66;32.67
19783;BME280;10051;40.294;-3.754;2023-07-29T03:59:35;93969.91;;;26.48;32.63
19783;BME280;10051;40.294;-3.754;2023-07-29T04:02:01;94004.19;;;26.69;33.00
19783;BME280;10051;40.294;-3.754;2023-07-29T04:04:26;93951.84;;;26.23;33.66
19783;BME280;10051;40.294;-3.754;2023-07-29T04:06:52;93962.22;;;26.21;33.75
19783;BME280;10051;40.294;-3.754;2023-07-29T04:09:17;93997.63;;;26.37;34.30
19783;BME280;10051;40.294;-3.754;2023-07-29T04:11:43;94004.56;;;26.42;34.22
19783;BME280;10051;40.294;-3.754;2023-07-29T04:14:09;93989.56;;;26.45;34.16
19783;BME280;10051;40.294;-3.754;2023-07-29T04:16:34;93989.94;;;26.47;33.98
19783;BME280;10051;40.294;-3.754;2023-07-29T04:19:00;94006.50;;;26.56;34.15
19783;BME280;10051;40.294;-3.754;2023-07-29T04:21:26;93981.06;;;26.35;34.27
19783;BME280;10051;40.294;-3.754;2023-07-29T04:23:51;94005.75;;;26.48;34.97
19783;BME280;10051;40.294;-3.754;2023-07-29T04:26:17;93939.84;;;26.09;34.87
19783;BME280;10051;40.294;-3.754;2023-07-29T04:28:42;93998.78;;;26.51;34.69
19783;BME280;10051;40.294;-3.754;2023-07-29T04:31:08;93984.94;;;26.45;34.80
19783;BME280;10051;40.294;-3.754;2023-07-29T04:33:33;93986.09;;;26.48;34.80
19783;BME280;10051;40.294;-3.754;2023-07-29T04:35:59;94020.00;;;26.63;34.48
19783;BME280;10051;40.294;-3.754;2023-07-29T04:38:31;94024.22;;;26.57;34.97
19783;BME280;10051;40.294;-3.754;2023-07-29T04:41:00;93959.13;;;26.15;34.89
19783;BME280;10051;40.294;-3.754;2023-07-29T04:43:28;93994.53;;;26.35;34.66
19783;BME280;10051;40.294;-3.754;2023-07-29T04:45:54;94018.06;;;26.49;34.71
19783;BME280;10051;40.294;-3.754;2023-07-29T04:48:19;93934.41;;;25.88;34.81
19783;BME280;10051;40.294;-3.754;2023-07-29T04:50:45;93977.56;;;26.02;34.96
19783;BME280;10051;40.294;-3.754;2023-07-29T04:53:11;93967.47;;;25.70;35.64
19783;BME280;10051;40.294;-3.754;2023-07-29T04:55:36;94030.25;;;25.92;36.04
19783;BME280;10051;40.294;-3.754;2023-07-29T04:58:02;93956.25;;;25.50;36.10
19783;BME280;10051;40.294;-3.754;2023-07-29T05:00:28;94028.72;;;25.98;36.80
19783;BME280;10051;40.294;-3.754;2023-07-29T05:02:53;94032.16;;;25.92;37.17
19783;BME280;10051;40.294;-3.754;2023-07-29T05:05:19;93990.91;;;25.66;37.35
19783;BME280;10051;40.294;-3.754;2023-07-29T05:07:45;94037.50;;;25.77;37.86
19783;BME280;10051;40.294;-3.754;2023-07-29T05:10:10;94001.50;;;25.30;38.13
19783;BME280;10051;40.294;-3.754;2023-07-29T05:12:36;94022.88;;;25.04;39.72
19783;BME280;10051;40.294;-3.754;2023-07-29T05:15:02;94034.78;;;25.03;39.83
19783;BME280;10051;40.294;-3.754;2023-07-29T05:17:28;94022.44;;;24.91;40.22
19783;BME280;10051;40.294;-3.754;2023-07-29T05:19:53;93994.34;;;24.85;40.32
19783;BME280;10051;40.294;-3.754;2023-07-29T05:22:19;94013.78;;;25.27;39.54
19783;BME280;10051;40.294;-3.754;2023-07-29T05:24:45;94001.50;;;25.30;39.41
19783;BME280;10051;40.294;-3.754;2023-07-29T05:27:10;94010.69;;;25.25;39.75
19783;BME280;10051;40.294;-3.754;2023-07-29T05:29:36;94025.13;;;24.99;40.54
19783;BME280;10051;40.294;-3.754;2023-07-29T05:32:01;94035.69;;;25.26;40.37
19783;BME280;10051;40.294;-3.754;2023-07-29T05:34:27;94014.88;;;25.12;40.71
19783;BME280;10051;40.294;-3.754;2023-07-29T05:36:52;93995.66;;;25.13;40.48
19783;BME280;10051;40.294;-3.754;2023-07-29T05:39:18;94008.09;;;25.36;40.41
19783;BME280;10051;40.294;-3.754;2023-07-29T05:41:44;94059.41;;;25.76;40.10
19783;BME280;10051;40.294;-3.754;2023-07-29T05:44:09;93996.00;;;25.08;40.90
19783;BME280;10051;40.294;-3.754;2023-07-29T05:46:35;94018.81;;;25.29;40.60
19783;BME280;10051;40.294;-3.754;2023-07-29T05:49:00;94046.66;;;25.58;40.50
19783;BME280;10051;40.294;-3.754;2023-07-29T05:51:26;94011.38;;;25.81;39.35
19783;BME280;10051;40.294;-3.754;2023-07-29T05:53:51;94057.88;;;28.03;36.10
19783;BME280;10051;40.294;-3.754;2023-07-29T05:56:17;94080.41;;;29.55;33.91
19783;BME280;10051;40.294;-3.754;2023-07-29T05:58:42;94075.25;;;29.22;34.60
19783;BME280;10051;40.294;-3.754;2023-07-29T06:01:09;94035.59;;;27.81;35.73
19783;BME280;10051;40.294;-3.754;2023-07-29T06:03:35;94087.81;;;27.05;35.98
19783;BME280;10051;40.294;-3.754;2023-07-29T06:06:00;94087.63;;;26.04;34.30
19783;BME280;10051;40.294;-3.754;2023-07-29T06:08:26;94073.03;;;25.34;34.01
19783;BME280;10051;40.294;-3.754;2023-07-29T06:10:53;94065.63;;;25.20;32.66
19783;BME280;10051;40.294;-3.754;2023-07-29T06:13:19;94019.53;;;24.70;32.56
19783;BME280;10051;40.294;-3.754;2023-07-29T06:15:45;94065.06;;;24.89;32.79
19783;BME280;10051;40.294;-3.754;2023-07-29T06:18:10;94081.59;;;24.91;32.87
19783;BME280;10051;40.294;-3.754;2023-07-29T06:20:38;93975.19;;;24.42;32.23
19783;BME280;10051;40.294;-3.754;2023-07-29T06:23:04;94075.34;;;25.39;31.38
19783;BME280;10051;40.294;-3.754;2023-07-29T06:25:29;94082.72;;;25.46;30.98
19783;BME280;10051;40.294;-3.754;2023-07-29T06:27:55;94100.97;;;25.78;30.37
19783;BME280;10051;40.294;-3.754;2023-07-29T06:30:20;94099.03;;;25.75;29.31
19783;BME280;10051;40.294;-3.754;2023-07-29T06:32:46;94091.22;;;25.56;29.47
19783;BME280;10051;40.294;-3.754;2023-07-29T06:35:12;94055.63;;;25.17;29.10
19783;BME280;10051;40.294;-3.754;2023-07-29T06:37:37;94069.75;;;25.07;29.02
19783;BME280;10051;40.294;-3.754;2023-07-29T06:40:03;94110.03;;;25.48;28.71
19783;BME280;10051;40.294;-3.754;2023-07-29T06:42:29;94086.13;;;25.36;29.04
19783;BME280;10051;40.294;-3.754;2023-07-29T06:44:55;94110.06;;;25.52;29.47
19783;BME280;10051;40.294;-3.754;2023-07-29T06:47:20;94110.97;;;25.78;28.88
19783;BME280;10051;40.294;-3.754;2023-07-29T06:49:46;94060.50;;;25.60;28.79
19783;BME280;10051;40.294;-3.754;2023-07-29T06:52:12;94126.81;;;25.90;29.40
19783;BME280;10051;40.294;-3.754;2023-07-29T06:54:37;94125.22;;;25.82;29.58
19783;BME280;10051;40.294;-3.754;2023-07-29T06:57:03;94090.88;;;25.61;29.61
19783;BME280;10051;40.294;-3.754;2023-07-29T06:59:29;94127.66;;;26.12;29.30
19783;BME280;10051;40.294;-3.754;2023-07-29T07:01:54;94082.88;;;25.75;29.06
19783;BME280;10051;40.294;-3.754;2023-07-29T07:04:20;94100.53;;;25.73;30.79
19783;BME280;10051;40.294;-3.754;2023-07-29T07:06:45;94112.16;;;25.80;29.96
19783;BME280;10051;40.294;-3.754;2023-07-29T07:09:11;94097.53;;;25.89;30.03
19783;BME280;10051;40.294;-3.754;2023-07-29T07:11:37;94121.59;;;26.34;29.71
19783;BME280;10051;40.294;-3.754;2023-07-29T07:14:02;94135.16;;;26.73;29.15
19783;BME280;10051;40.294;-3.754;2023-07-29T07:16:28;94143.31;;;27.06;28.53
19783;BME280;10051;40.294;-3.754;2023-07-29T07:18:56;94131.75;;;27.13;28.84
19783;BME280;10051;40.294;-3.754;2023-07-29T07:21:22;94131.75;;;27.13;29.00
19783;BME280;10051;40.294;-3.754;2023-07-29T07:23:50;94149.09;;;27.30;28.87
19783;BME280;10051;40.294;-3.754;2023-07-29T07:26:15;94134.81;;;27.33;28.08
19783;BME280;10051;40.294;-3.754;2023-07-29T07:28:41;94124.78;;;27.41;28.22
19783;BME280;10051;40.294;-3.754;2023-07-29T07:31:09;94146.38;;;27.66;28.26
19783;BME280;10051;40.294;-3.754;2023-07-29T07:33:35;94140.94;;;27.77;28.58
19783;BME280;10051;40.294;-3.754;2023-07-29T07:36:01;94148.22;;;28.02;28.24
19783;BME280;10051;40.294;-3.754;2023-07-29T07:38:26;94129.31;;;28.02;28.53
19783;BME280;10051;40.294;-3.754;2023-07-29T07:40:53;94136.59;;;28.09;30.04
19783;BME280;10051;40.294;-3.754;2023-07-29T07:43:20;94126.59;;;28.02;29.66
19783;BME280;10051;40.294;-3.754;2023-07-29T07:45:45;94113.44;;;28.04;29.98
19783;BME280;10051;40.294;-3.754;2023-07-29T07:48:11;94165.84;;;28.39;30.11
19783;BME280;10051;40.294;-3.754;2023-07-29T07:50:38;94144.69;;;28.23;29.89
19783;BME280;10051;40.294;-3.754;2023-07-29T07:53:04;94133.88;;;28.23;30.18
19783;BME280;10051;40.294;-3.754;2023-07-29T07:55:30;94168.84;;;28.56;29.82
19783;BME280;10051;40.294;-3.754;2023-07-29T07:57:55;94138.03;;;28.39;30.05
19783;BME280;10051;40.294;-3.754;2023-07-29T08:00:21;94146.53;;;28.41;30.09
19783;BME280;10051;40.294;-3.754;2023-07-29T08:02:46;94164.13;;;28.74;29.91
19783;BME280;10051;40.294;-3.754;2023-07-29T08:05:15;94145.97;;;28.78;30.03
19783;BME280;10051;40.294;-3.754;2023-07-29T08:07:40;94143.69;;;28.66;29.79
19783;BME280;10051;40.294;-3.754;2023-07-29T08:10:06;94159.88;;;28.73;30.65
19783;BME280;10051;40.294;-3.754;2023-07-29T08:12:32;94154.63;;;28.44;30.50
19783;BME280;10051;40.294;-3.754;2023-07-29T08:14:58;94172.34;;;28.53;30.85
19783;BME280;10051;40.294;-3.754;2023-07-29T08:17:23;94168.03;;;28.66;30.86
19783;BME280;10051;40.294;-3.754;2023-07-29T08:19:49;94162.94;;;28.79;31.24
19783;BME280;10051;40.294;-3.754;2023-07-29T08:22:14;94146.72;;;28.83;31.41
19783;BME280;10051;40.294;-3.754;2023-07-29T08:24:42;94135.47;;;28.88;31.10
19783;BME280;10051;40.294;-3.754;2023-07-29T08:27:08;94144.25;;;28.99;31.51
19783;BME280;10051;40.294;-3.754;2023-07-29T08:29:34;94167.84;;;28.99;31.13
19783;BME280;10051;40.294;-3.754;2023-07-29T08:31:59;94170.38;;;29.20;30.88
19783;BME280;10051;40.294;-3.754;2023-07-29T08:34:25;94169.09;;;29.40;31.53
19783;BME280;10051;40.294;-3.754;2023-07-29T08:36:50;94165.28;;;29.37;31.51
19783;BME280;10051;40.294;-3.754;2023-07-29T08:39:16;94164.13;;;29.34;31.68
19783;BME280;10051;40.294;-3.754;2023-07-29T08:42:03;94171.00;;;29.46;32.56
19783;BME280;10051;40.294;-3.754;2023-07-29T08:44:43;94154.13;;;29.24;32.19
19783;BME280;10051;40.294;-3.754;2023-07-29T08:47:09;94159.06;;;29.40;33.15
19783;BME280;10051;40.294;-3.754;2023-07-29T08:49:36;94154.69;;;29.53;33.24
19783;BME280;10051;40.294;-3.754;2023-07-29T08:52:02;94136.00;;;29.66;33.27
19783;BME280;10051;40.294;-3.754;2023-07-29T08:54:29;94163.47;;;30.07;32.48
19783;BME280;10051;40.294;-3.754;2023-07-29T08:56:55;94165.66;;;30.19;32.75
19783;BME280;10051;40.294;-3.754;2023-07-29T08:59:20;94161.63;;;30.31;33.20
19783;BME280;10051;40.294;-3.754;2023-07-29T09:01:47;94165.69;;;30.47;33.26
19783;BME280;10051;40.294;-3.754;2023-07-29T09:04:12;94129.66;;;30.46;32.51
19783;BME280;10051;40.294;-3.754;2023-07-29T09:06:39;94171.78;;;30.85;32.37
19783;BME280;10051;40.294;-3.754;2023-07-29T09:09:07;94152.44;;;30.83;30.91
19783;BME280;10051;40.294;-3.754;2023-07-29T09:11:33;94145.53;;;30.79;31.28
19783;BME280;10051;40.294;-3.754;2023-07-29T09:13:58;94168.06;;;31.03;30.82
19783;BME280;10051;40.294;-3.754;2023-07-29T09:16:24;94103.69;;;30.76;30.04
19783;BME280;10051;40.294;-3.754;2023-07-29T09:18:53;94168.09;;;31.27;29.83
19783;BME280;10051;40.294;-3.754;2023-07-29T09:21:27;94173.34;;;31.38;29.04
19783;BME280;10051;40.294;-3.754;2023-07-29T09:23:54;94174.41;;;31.44;29.66
19783;BME280;10051;40.294;-3.754;2023-07-29T09:26:25;94180.44;;;31.55;29.22
19783;BME280;10051;40.294;-3.754;2023-07-29T09:28:56;94172.91;;;31.63;30.35
19783;BME280;10051;40.294;-3.754;2023-07-29T09:31:24;94171.88;;;31.81;29.68
19783;BME280;10051;40.294;-3.754;2023-07-29T09:33:55;94140.19;;;31.70;30.04
19783;BME280;10051;40.294;-3.754;2023-07-29T09:36:22;94170.22;;;32.07;29.88
19783;BME280;10051;40.294;-3.754;2023-07-29T09:38:55;94166.25;;;32.12;29.18
19783;BME280;10051;40.294;-3.754;2023-07-29T09:41:27;94159.84;;;32.02;29.16
19783;BME280;10051;40.294;-3.754;2023-07-29T09:43:58;94156.28;;;32.05;29.31
19783;BME280;10051;40.294;-3.754;2023-07-29T09:46:25;94163.25;;;32.26;28.94
19783;BME280;10051;40.294;-3.754;2023-07-29T09:48:53;94151.56;;;32.29;28.46
19783;BME280;10051;40.294;-3.754;2023-07-29T09:51:24;94160.97;;;32.45;28.80
19783;BME280;10051;40.294;-3.754;2023-07-29T09:53:50;94170.63;;;32.46;28.28
19783;BME280;10051;40.294;-3.754;2023-07-29T09:56:17;94173.94;;;32.37;28.66
19783;BME280;10051;40.294;-3.754;2023-07-29T09:58:47;94163.34;;;32.23;29.53
19783;BME280;10051;40.294;-3.754;2023-07-29T10:01:13;94134.81;;;32.11;29.78
19783;BME280;10051;40.294;-3.754;2023-07-29T10:03:40;94174.56;;;32.45;29.35
19783;BME280;10051;40.294;-3.754;2023-07-29T10:06:06;94160.81;;;32.52;29.63
19783;BME280;10051;40.294;-3.754;2023-07-29T10:08:33;94164.06;;;32.63;29.35
19783;BME280;10051;40.294;-3.754;2023-07-29T10:11:05;94158.13;;;32.69;28.90
19783;BME280;10051;40.294;-3.754;2023-07-29T10:13:32;94159.16;;;32.75;28.07
19783;BME280;10051;40.294;-3.754;2023-07-29T10:15:58;94147.59;;;32.71;28.16
19783;BME280;10051;40.294;-3.754;2023-07-29T10:18:27;94125.38;;;32.56;27.91
19783;BME280;10051;40.294;-3.754;2023-07-29T10:20:54;94161.59;;;32.89;28.29
19783;BME280;10051;40.294;-3.754;2023-07-29T10:23:21;94159.63;;;32.90;28.30
19783;BME280;10051;40.294;-3.754;2023-07-29T10:25:55;94148.97;;;32.79;28.67
19783;BME280;10051;40.294;-3.754;2023-07-29T10:28:25;94154.56;;;32.72;29.26
19783;BME280;10051;40.294;-3.754;2023-07-29T10:30:52;94140.09;;;32.75;28.40
19783;BME280;10051;40.294;-3.754;2023-07-29T10:33:18;94123.94;;;32.68;27.19
19783;BME280;10051;40.294;-3.754;2023-07-29T10:35:43;94153.09;;;33.04;27.09
19783;BME280;10051;40.294;-3.754;2023-07-29T10:38:16;94137.78;;;33.10;26.27
19783;BME280;10051;40.294;-3.754;2023-07-29T10:40:51;94131.81;;;32.99;25.99
19783;BME280;10051;40.294;-3.754;2023-07-29T10:43:35;94146.78;;;33.07;25.07
19783;BME280;10051;40.294;-3.754;2023-07-29T10:46:18;94147.56;;;33.07;25.86
19783;BME280;10051;40.294;-3.754;2023-07-29T10:48:55;94153.38;;;33.10;25.45
19783;BME280;10051;40.294;-3.754;2023-07-29T10:54:10;94150.88;;;33.32;25.41
19783;BME280;10051;40.294;-3.754;2023-07-29T10:56:48;94139.31;;;33.28;25.29
19783;BME280;10051;40.294;-3.754;2023-07-29T11:01:59;94105.28;;;33.19;25.73
19783;BME280;10051;40.294;-3.754;2023-07-29T11:04:26;94140.25;;;33.54;25.61
19783;BME280;10051;40.294;-3.754;2023-07-29T11:12:51;94133.81;;;33.77;25.34
19783;BME280;10051;40.294;-3.754;2023-07-29T11:15:21;94143.66;;;33.88;25.28
19783;BME280;10051;40.294;-3.754;2023-07-29T11:17:53;94126.41;;;33.91;25.17
19783;BME280;10051;40.294;-3.754;2023-07-29T11:20:21;94032.88;;;33.35;24.05
19783;BME280;10051;40.294;-3.754;2023-07-29T11:22:47;94128.81;;;33.89;24.18
19783;BME280;10051;40.294;-3.754;2023-07-29T11:25:15;94135.31;;;33.95;24.24
19783;BME280;10051;40.294;-3.754;2023-07-29T11:27:41;94123.69;;;33.91;24.26
19783;BME280;10051;40.294;-3.754;2023-07-29T11:30:09;94089.19;;;33.71;24.16
19783;BME280;10051;40.294;-3.754;2023-07-29T11:32:37;94125.72;;;34.03;23.44
19783;BME280;10051;40.294;-3.754;2023-07-29T11:35:10;94104.47;;;33.81;24.24
19783;BME280;10051;40.294;-3.754;2023-07-29T11:37:37;94123.75;;;34.04;24.70
19783;BME280;10051;40.294;-3.754;2023-07-29T11:40:04;94120.16;;;34.07;23.27
19783;BME280;10051;40.294;-3.754;2023-07-29T11:42:34;94121.84;;;34.17;23.65
19783;BME280;10051;40.294;-3.754;2023-07-29T11:45:01;94115.28;;;34.15;23.22
19783;BME280;10051;40.294;-3.754;2023-07-29T11:47:28;94116.16;;;34.12;22.87
19783;BME280;10051;40.294;-3.754;2023-07-29T11:49:53;94122.16;;;34.19;22.36
19783;BME280;10051;40.294;-3.754;2023-07-29T11:52:19;94110.69;;;34.12;23.01
19783;BME280;10051;40.294;-3.754;2023-07-29T11:54:47;94067.41;;;33.84;23.52
19783;BME280;10051;40.294;-3.754;2023-07-29T11:57:13;94116.41;;;34.30;23.57
19783;BME280;10051;40.294;-3.754;2023-07-29T11:59:41;94107.47;;;34.43;23.76
19783;BME280;10051;40.294;-3.754;2023-07-29T12:02:13;94097.38;;;34.56;22.80
19783;BME280;10051;40.294;-3.754;2023-07-29T12:04:40;94015.91;;;34.16;22.65
19783;BME280;10051;40.294;-3.754;2023-07-29T12:07:07;94084.38;;;34.60;21.96
19783;BME280;10051;40.294;-3.754;2023-07-29T12:09:34;94097.00;;;34.80;22.12
19783;BME280;10051;40.294;-3.754;2023-07-29T12:12:01;94100.31;;;34.88;22.17
19783;BME280;10051;40.294;-3.754;2023-07-29T12:14:28;94089.16;;;34.82;22.40
19783;BME280;10051;40.294;-3.754;2023-07-29T12:16:54;94103.91;;;34.97;22.09
19783;BME280;10051;40.294;-3.754;2023-07-29T12:19:21;94091.22;;;34.91;22.20
19783;BME280;10051;40.294;-3.754;2023-07-29T12:21:48;94098.00;;;34.99;22.06
19783;BME280;10051;40.294;-3.754;2023-07-29T12:24:15;94082.16;;;34.94;21.67
19783;BME280;10051;40.294;-3.754;2023-07-29T12:26:41;94065.91;;;34.77;22.37
19783;BME280;10051;40.294;-3.754;2023-07-29T12:29:13;94084.81;;;34.97;22.71
19783;BME280;10051;40.294;-3.754;2023-07-29T12:31:39;94092.78;;;35.05;22.35
19783;BME280;10051;40.294;-3.754;2023-07-29T12:34:05;94066.44;;;34.98;22.15
19783;BME280;10051;40.294;-3.754;2023-07-29T12:36:44;94072.00;;;34.94;22.39
19783;BME280;10051;40.294;-3.754;2023-07-29T12:39:21;94063.56;;;34.89;22.54
19783;BME280;10051;40.294;-3.754;2023-07-29T12:41:48;94065.78;;;35.07;22.57
19783;BME280;10051;40.294;-3.754;2023-07-29T12:44:14;94027.19;;;34.92;21.55
19783;BME280;10051;40.294;-3.754;2023-07-29T12:46:40;94073.00;;;35.36;21.11
19783;BME280;10051;40.294;-3.754;2023-07-29T12:49:05;94039.09;;;35.11;21.27
19783;BME280;10051;40.294;-3.754;2023-07-29T12:51:31;94016.28;;;34.92;21.93
19783;BME280;10051;40.294;-3.754;2023-07-29T12:53:57;94009.19;;;34.94;22.24
19783;BME280;10051;40.294;-3.754;2023-07-29T12:56:23;94041.09;;;35.33;21.01
19783;BME280;10051;40.294;-3.754;2023-07-29T12:58:48;94051.47;;;35.38;21.02
19783;BME280;10051;40.294;-3.754;2023-07-29T13:01:14;94004.34;;;35.11;20.72
19783;BME280;10051;40.294;-3.754;2023-07-29T13:03:44;94053.00;;;35.39;20.45